createdAt,value
2019-02-08T00:00:26.526Z,6.17
2019-02-08T00:02:53.160Z,7.17
2019-02-08T00:05:20.309Z,6.27
2019-02-08T00:07:46.792Z,7.73
2019-02-08T00:10:17.423Z,8.07
2019-02-08T00:12:43.924Z,6.63
2019-02-08T00:15:13.114Z,7.03
2019-02-08T00:17:39.781Z,6.53
2019-02-08T00:20:09.879Z,7.67
2019-02-08T00:22:36.453Z,8.60
2019-02-08T00:25:06.165Z,7.43
2019-02-08T00:27:32.523Z,7.33
2019-02-08T00:29:59.228Z,7.90
2019-02-08T00:32:25.502Z,6.70
2019-02-08T00:34:52.229Z,6.40
2019-02-08T00:37:18.816Z,7.97
2019-02-08T00:39:45.461Z,9.33
2019-02-08T00:42:11.839Z,9.50
2019-02-08T00:44:38.325Z,6.20
2019-02-08T00:47:04.821Z,8.67
2019-02-08T00:49:31.364Z,5.67
2019-02-08T00:51:57.771Z,6.47
2019-02-08T00:54:24.270Z,8.37
2019-02-08T00:56:50.893Z,6.60
2019-02-08T00:59:17.402Z,6.60
2019-02-08T01:01:43.901Z,7.63
2019-02-08T01:04:10.419Z,6.07
2019-02-08T01:06:37.029Z,6.60
2019-02-08T01:09:07.061Z,5.03
2019-02-08T01:11:33.485Z,8.27
2019-02-08T01:14:00.097Z,5.63
2019-02-08T01:16:27.076Z,5.70
2019-02-08T01:18:53.576Z,7.97
2019-02-08T01:21:20.064Z,5.43
2019-02-08T01:23:46.589Z,7.00
2019-02-08T01:26:13.198Z,4.10
2019-02-08T01:28:39.669Z,4.63
2019-02-08T01:31:06.171Z,3.73
2019-02-08T01:33:32.720Z,3.80
2019-02-08T01:35:59.117Z,3.93
2019-02-08T01:38:25.653Z,3.57
2019-02-08T01:40:52.146Z,3.20
2019-02-08T01:43:18.660Z,4.63
2019-02-08T01:45:45.209Z,3.60
2019-02-08T01:48:11.871Z,4.47
2019-02-08T01:50:38.398Z,4.53
2019-02-08T01:53:05.308Z,3.90
2019-02-08T01:55:31.849Z,3.87
2019-02-08T01:57:58.324Z,3.87
2019-02-08T02:00:36.893Z,4.70
2019-02-08T02:03:04.595Z,3.13
2019-02-08T02:05:31.146Z,3.53
2019-02-08T02:07:57.884Z,4.30
2019-02-08T02:10:29.403Z,3.40
2019-02-08T02:12:56.352Z,3.13
2019-02-08T02:15:22.861Z,3.70
2019-02-08T02:17:49.366Z,2.60
2019-02-08T02:20:21.628Z,3.23
2019-02-08T02:22:48.021Z,3.30
2019-02-08T02:25:14.580Z,3.60
2019-02-08T02:27:41.097Z,2.93
2019-02-08T02:30:11.309Z,3.50
2019-02-08T02:32:37.818Z,4.13
2019-02-08T02:35:08.040Z,3.20
2019-02-08T02:37:34.525Z,3.93
2019-02-08T02:40:01.026Z,4.00
2019-02-08T02:42:27.518Z,3.17
2019-02-08T02:44:54.026Z,2.70
2019-02-08T02:47:20.485Z,3.10
2019-02-08T02:49:46.873Z,3.23
2019-02-08T02:52:13.304Z,2.83
2019-02-08T02:54:39.722Z,3.20
2019-02-08T02:57:06.202Z,2.70
2019-02-08T02:59:32.818Z,2.70
2019-02-08T03:01:59.415Z,3.03
2019-02-08T03:04:26.026Z,2.10
2019-02-08T03:06:52.497Z,2.20
2019-02-08T03:09:20.001Z,2.23
2019-02-08T03:11:46.436Z,2.23
2019-02-08T03:14:12.885Z,3.17
2019-02-08T03:16:39.400Z,3.20
2019-02-08T03:19:05.906Z,4.17
2019-02-08T03:21:32.162Z,3.63
2019-02-08T03:23:58.677Z,5.13
2019-02-08T03:26:25.342Z,4.27
2019-02-08T03:28:51.805Z,4.23
2019-02-08T03:31:18.297Z,4.47
2019-02-08T03:33:44.708Z,3.93
2019-02-08T03:36:11.237Z,3.97
2019-02-08T03:38:37.524Z,2.90
2019-02-08T03:41:04.015Z,4.17
2019-02-08T03:43:30.482Z,3.40
2019-02-08T03:45:56.957Z,4.60
2019-02-08T03:48:23.529Z,5.90
2019-02-08T03:50:50.042Z,3.83
2019-02-08T03:53:16.579Z,7.77
2019-02-08T03:55:43.123Z,7.73
2019-02-08T03:58:09.612Z,7.03
2019-02-08T04:00:38.265Z,7.03
2019-02-08T04:03:04.767Z,6.60
2019-02-08T04:05:31.241Z,7.90
2019-02-08T04:07:57.913Z,5.17
2019-02-08T04:10:24.539Z,7.67
2019-02-08T04:12:51.111Z,4.80
2019-02-08T04:15:22.100Z,5.40
2019-02-08T04:17:48.553Z,10.00
2019-02-08T04:20:16.561Z,6.27
2019-02-08T04:22:43.142Z,3.70
2019-02-08T04:25:12.398Z,4.43
2019-02-08T04:27:39.085Z,8.17
2019-02-08T04:30:09.167Z,7.00
2019-02-08T04:32:35.627Z,5.87
2019-02-08T04:35:02.096Z,6.93
2019-02-08T04:37:28.527Z,5.17
2019-02-08T04:39:54.826Z,8.23
2019-02-08T04:42:21.391Z,6.47
2019-02-08T04:44:47.756Z,6.90
2019-02-08T04:47:14.131Z,4.57
2019-02-08T04:49:40.631Z,4.80
2019-02-08T04:52:06.999Z,5.03
2019-02-08T04:54:38.436Z,4.83
2019-02-08T04:57:01.669Z,6.57
2019-02-08T04:59:28.312Z,5.73
2019-02-08T05:01:54.780Z,4.90
2019-02-08T05:04:21.286Z,4.53
2019-02-08T05:06:47.855Z,5.63
2019-02-08T05:09:14.363Z,4.83
2019-02-08T05:11:40.747Z,4.40
2019-02-08T05:14:07.508Z,5.13
2019-02-08T05:16:34.063Z,7.40
2019-02-08T05:19:00.424Z,7.23
2019-02-08T05:21:26.986Z,4.63
2019-02-08T05:23:53.458Z,4.20
2019-02-08T05:26:19.950Z,3.30
2019-02-08T05:28:46.454Z,4.20
2019-02-08T05:31:12.850Z,3.43
2019-02-08T05:33:39.366Z,3.60
2019-02-08T05:36:05.816Z,3.27
2019-02-08T05:38:32.405Z,4.47
2019-02-08T05:40:58.791Z,4.00
2019-02-08T05:43:25.352Z,4.20
2019-02-08T05:45:51.962Z,3.73
2019-02-08T05:48:18.595Z,3.73
2019-02-08T05:50:45.035Z,5.37
2019-02-08T05:53:11.569Z,4.87
2019-02-08T05:55:38.280Z,3.17
2019-02-08T05:58:04.952Z,3.87
2019-02-08T06:00:42.905Z,3.50
2019-02-08T06:03:09.292Z,3.40
2019-02-08T06:05:36.485Z,3.47
2019-02-08T06:08:03.704Z,3.27
2019-02-08T06:10:30.176Z,3.10
2019-02-08T06:12:56.669Z,2.60
2019-02-08T06:15:24.263Z,2.90
2019-02-08T06:17:50.782Z,2.77
2019-02-08T06:20:21.561Z,2.60
2019-02-08T06:22:48.615Z,2.23
2019-02-08T06:25:16.933Z,2.37
2019-02-08T06:27:43.418Z,3.23
2019-02-08T06:30:13.485Z,3.00
2019-02-08T06:32:40.012Z,2.70
2019-02-08T06:35:07.595Z,3.20
2019-02-08T06:37:34.080Z,3.33
2019-02-08T06:40:00.580Z,3.90
2019-02-08T06:42:27.051Z,2.90
2019-02-08T06:44:53.545Z,2.70
2019-02-08T06:47:19.922Z,3.40
2019-02-08T06:49:46.324Z,4.43
2019-02-08T06:52:12.827Z,5.40
2019-02-08T06:54:39.361Z,5.37
2019-02-08T06:57:07.766Z,4.80
2019-02-08T06:59:36.137Z,4.80
2019-02-08T07:02:16.663Z,4.17
2019-02-08T07:04:47.612Z,4.03
2019-02-08T07:07:27.921Z,3.53
2019-02-08T07:09:56.337Z,3.57
2019-02-08T07:12:27.492Z,3.73
2019-02-08T07:14:55.710Z,4.10
2019-02-08T07:17:26.592Z,4.77
2019-02-08T07:20:03.910Z,5.70
2019-02-08T07:22:32.348Z,5.17
2019-02-08T07:25:09.426Z,4.10
2019-02-08T07:27:46.576Z,3.50
2019-02-08T07:30:25.135Z,3.63
2019-02-08T07:32:59.352Z,2.97
2019-02-08T07:35:27.784Z,3.83
2019-02-08T07:38:00.190Z,3.30
2019-02-08T07:40:38.415Z,3.67
2019-02-08T07:43:08.958Z,2.90
2019-02-08T07:45:55.687Z,3.23
2019-02-08T07:48:41.580Z,3.13
2019-02-08T07:51:21.978Z,2.90
2019-02-08T07:54:02.401Z,2.50
2019-02-08T07:56:36.843Z,2.43
2019-02-08T07:59:11.183Z,2.80
2019-02-08T08:01:42.151Z,2.77
2019-02-08T08:04:13.349Z,2.70
2019-02-08T08:06:45.112Z,4.77
2019-02-08T08:09:29.618Z,4.53
2019-02-08T08:11:58.219Z,6.60
2019-02-08T08:14:26.619Z,6.50
2019-02-08T08:17:03.834Z,9.83
2019-02-08T08:19:49.117Z,5.87
2019-02-08T08:22:26.505Z,9.37
2019-02-08T08:24:57.939Z,9.87
2019-02-08T08:27:26.414Z,5.07
2019-02-08T08:30:10.447Z,7.23
2019-02-08T08:32:40.750Z,8.07
2019-02-08T08:35:13.624Z,6.77
2019-02-08T08:37:49.848Z,7.60
2019-02-08T08:40:22.664Z,6.47
2019-02-08T08:42:58.720Z,7.70
2019-02-08T08:45:37.763Z,6.53
2019-02-08T08:48:27.833Z,6.10
2019-02-08T08:51:14.527Z,10.77
2019-02-08T08:54:02.120Z,6.80
2019-02-08T08:56:41.180Z,6.43
2019-02-08T08:59:40.470Z,8.23
2019-02-08T09:02:36.277Z,5.03
2019-02-08T09:05:29.013Z,7.00
2019-02-08T09:08:11.331Z,7.07
2019-02-08T09:10:47.357Z,7.23
2019-02-08T09:13:23.831Z,7.97
2019-02-08T09:16:19.789Z,7.67
2019-02-08T09:19:24.418Z,8.97
2019-02-08T09:21:57.727Z,8.03
2019-02-08T09:24:30.528Z,7.77
2019-02-08T09:27:17.404Z,6.73
2019-02-08T09:30:04.454Z,6.87
2019-02-08T09:32:40.892Z,10.67
2019-02-08T09:35:36.936Z,8.47
2019-02-08T09:38:25.399Z,6.97
2019-02-08T09:41:21.292Z,6.80
2019-02-08T09:44:06.462Z,5.83
2019-02-08T09:46:53.256Z,5.40
2019-02-08T09:49:56.879Z,9.43
2019-02-08T09:52:42.265Z,5.43
2019-02-08T09:55:32.205Z,5.58
2019-02-08T09:58:10.781Z,4.12
2019-02-08T10:01:06.733Z,4.55
2019-02-08T10:03:55.348Z,5.92
2019-02-08T10:06:31.375Z,4.30
2019-02-08T10:09:29.199Z,3.10
2019-02-08T10:12:31.230Z,5.00
2019-02-08T10:15:25.181Z,3.98
2019-02-08T10:18:22.142Z,2.70
2019-02-08T10:21:07.375Z,4.85
2019-02-08T10:23:40.420Z,2.98
2019-02-08T10:26:38.138Z,3.47
2019-02-08T10:29:35.774Z,3.17
2019-02-08T10:32:34.594Z,3.80
2019-02-08T10:35:13.119Z,3.67
2019-02-08T10:37:55.637Z,3.00
2019-02-08T10:40:45.285Z,3.02
2019-02-08T10:43:30.483Z,3.87
2019-02-08T10:46:26.442Z,4.22
2019-02-08T10:49:12.839Z,3.08
2019-02-08T10:51:52.105Z,4.30
2019-02-08T10:54:31.463Z,3.25
2019-02-08T10:57:21.351Z,4.15
2019-02-08T10:59:57.731Z,4.40
2019-02-08T11:02:36.920Z,2.98
2019-02-08T11:05:13.135Z,5.97
2019-02-08T11:08:16.764Z,3.40
2019-02-08T11:11:03.869Z,3.17
2019-02-08T11:13:43.126Z,3.40
2019-02-08T11:16:28.369Z,3.65
2019-02-08T11:19:16.987Z,2.52
2019-02-08T11:21:44.029Z,3.67
2019-02-08T11:24:10.530Z,3.45
2019-02-08T11:26:37.250Z,3.65
2019-02-08T11:29:04.313Z,3.12
2019-02-08T11:31:30.907Z,5.08
2019-02-08T11:33:57.448Z,3.62
2019-02-08T11:36:23.992Z,3.40
2019-02-08T11:38:50.460Z,3.12
2019-02-08T11:41:17.088Z,3.22
2019-02-08T11:43:43.565Z,3.98
2019-02-08T11:46:10.173Z,4.60
2019-02-08T11:48:36.675Z,3.87
2019-02-08T11:51:03.236Z,4.05
2019-02-08T11:53:29.651Z,2.85
2019-02-08T11:55:56.146Z,5.08
2019-02-08T11:58:22.556Z,2.80
2019-02-08T12:00:50.950Z,2.60
2019-02-08T12:03:17.264Z,3.33
2019-02-08T12:05:43.866Z,2.83
2019-02-08T12:08:10.451Z,2.50
2019-02-08T12:10:36.941Z,4.15
2019-02-08T12:13:03.460Z,3.52
2019-02-08T12:15:30.012Z,3.72
2019-02-08T12:17:56.512Z,3.08
2019-02-08T12:20:23.043Z,4.00
2019-02-08T12:22:49.458Z,3.55
2019-02-08T12:25:15.954Z,3.30
2019-02-08T12:27:42.494Z,3.50
2019-02-08T12:30:21.463Z,4.08
2019-02-08T12:32:47.983Z,2.50
2019-02-08T12:35:14.450Z,3.67
2019-02-08T12:37:40.957Z,3.58
2019-02-08T12:40:08.647Z,2.60
2019-02-08T12:42:35.070Z,3.15
2019-02-08T12:45:01.757Z,3.20
2019-02-08T12:47:28.245Z,3.62
2019-02-08T12:49:54.646Z,3.17
2019-02-08T12:52:21.001Z,4.15
2019-02-08T12:54:47.623Z,5.45
2019-02-08T12:57:14.095Z,4.33
2019-02-08T12:59:40.509Z,3.00
2019-02-08T13:02:07.087Z,3.90
2019-02-08T13:04:33.575Z,3.20
2019-02-08T13:07:00.012Z,4.05
2019-02-08T13:09:26.400Z,3.40
2019-02-08T13:11:52.972Z,2.25
2019-02-08T13:14:19.354Z,2.77
2019-02-08T13:16:45.832Z,2.75
2019-02-08T13:19:12.251Z,2.80
2019-02-08T13:21:38.785Z,2.00
2019-02-08T13:24:05.361Z,2.10
2019-02-08T13:26:31.830Z,2.17
2019-02-08T13:28:58.243Z,2.90
2019-02-08T13:31:24.612Z,2.92
2019-02-08T13:33:51.055Z,3.80
2019-02-08T13:36:17.565Z,3.25
2019-02-08T13:38:44.119Z,3.42
2019-02-08T13:41:10.717Z,2.45
2019-02-08T13:43:37.322Z,2.40
2019-02-08T13:46:03.848Z,2.05
2019-02-08T13:48:30.372Z,3.60
2019-02-08T13:50:56.877Z,4.10
2019-02-08T13:53:25.043Z,3.92
2019-02-08T13:55:51.597Z,2.27
2019-02-08T13:58:18.085Z,2.98
2019-02-08T14:00:44.560Z,2.60
2019-02-08T14:03:11.106Z,4.08
2019-02-08T14:05:37.689Z,2.12
2019-02-08T14:08:04.396Z,2.20
2019-02-08T14:10:31.051Z,3.60
2019-02-08T14:12:57.681Z,1.85
2019-02-08T14:15:25.126Z,1.70
2019-02-08T14:17:51.637Z,2.35
2019-02-08T14:20:26.351Z,2.83
2019-02-08T14:22:52.931Z,2.72
2019-02-08T14:25:19.651Z,3.15
2019-02-08T14:27:46.322Z,3.80
2019-02-08T14:30:17.921Z,3.17
2019-02-08T14:32:44.534Z,2.62
2019-02-08T14:35:13.099Z,2.72
2019-02-08T14:37:39.533Z,2.12
2019-02-08T14:40:18.670Z,2.52
2019-02-08T14:42:45.135Z,2.15
2019-02-08T14:45:12.344Z,2.98
2019-02-08T14:47:38.755Z,1.85
2019-02-08T14:50:11.864Z,2.72
2019-02-08T14:52:38.367Z,3.52
2019-02-08T14:55:07.451Z,2.10
2019-02-08T14:57:34.053Z,2.40
2019-02-08T15:00:00.586Z,3.65
2019-02-08T15:02:27.073Z,2.35
2019-02-08T15:04:53.578Z,2.75
2019-02-08T15:07:20.176Z,1.92
2019-02-08T15:09:46.584Z,2.98
2019-02-08T15:12:13.154Z,3.37
2019-02-08T15:14:39.567Z,3.05
2019-02-08T15:17:05.991Z,2.27
2019-02-08T15:19:32.456Z,2.70
2019-02-08T15:21:59.510Z,2.93
2019-02-08T15:24:25.919Z,2.75
2019-02-08T15:26:52.372Z,2.20
2019-02-08T15:29:18.890Z,2.05
2019-02-08T15:31:45.263Z,2.55
2019-02-08T15:34:11.663Z,2.85
2019-02-08T15:36:38.031Z,3.00
2019-02-08T15:39:08.059Z,1.65
2019-02-08T15:41:34.423Z,2.87
2019-02-08T15:44:00.837Z,2.30
2019-02-08T15:46:27.229Z,1.63
2019-02-08T15:48:53.649Z,2.52
2019-02-08T15:51:20.257Z,2.00
2019-02-08T15:53:46.872Z,1.67
2019-02-08T15:56:13.429Z,1.93
2019-02-08T15:58:39.951Z,1.53
2019-02-08T16:01:09.668Z,1.60
2019-02-08T16:03:36.268Z,1.70
2019-02-08T16:06:03.571Z,1.70
2019-02-08T16:08:30.081Z,2.13
2019-02-08T16:10:56.708Z,1.83
2019-02-08T16:13:23.080Z,2.77
2019-02-08T16:15:49.577Z,1.90
2019-02-08T16:18:16.270Z,1.97
2019-02-08T16:20:42.824Z,2.50
2019-02-08T16:23:09.344Z,2.37
2019-02-08T16:25:35.847Z,3.20
2019-02-08T16:28:02.322Z,2.20
2019-02-08T16:30:33.588Z,2.00
2019-02-08T16:33:00.165Z,1.80
2019-02-08T16:35:26.823Z,2.20
2019-02-08T16:37:53.355Z,2.67
2019-02-08T16:40:22.328Z,2.10
2019-02-08T16:42:48.842Z,2.73
2019-02-08T16:45:18.366Z,2.07
2019-02-08T16:47:45.039Z,2.03
2019-02-08T16:50:15.208Z,1.90
2019-02-08T16:52:41.726Z,2.00
2019-02-08T16:55:10.095Z,1.60
2019-02-08T16:57:36.772Z,2.00
2019-02-08T17:00:06.954Z,1.90
2019-02-08T17:02:33.585Z,2.43
2019-02-08T17:05:00.197Z,1.97
2019-02-08T17:07:28.820Z,2.17
2019-02-08T17:09:55.206Z,2.07
2019-02-08T17:12:21.803Z,2.00
2019-02-08T17:14:48.327Z,2.03
2019-02-08T17:17:15.080Z,2.07
2019-02-08T17:19:41.561Z,1.80
2019-02-08T17:22:08.186Z,2.60
2019-02-08T17:24:34.673Z,2.37
2019-02-08T17:27:01.061Z,2.73
2019-02-08T17:29:27.582Z,3.13
2019-02-08T17:31:54.123Z,3.00
2019-02-08T17:34:20.637Z,2.80
2019-02-08T17:36:47.167Z,2.60
2019-02-08T17:39:14.727Z,2.80
2019-02-08T17:41:41.206Z,2.73
2019-02-08T17:44:07.735Z,2.80
2019-02-08T17:46:34.347Z,3.47
2019-02-08T17:49:00.757Z,4.30
2019-02-08T17:51:27.133Z,4.03
2019-02-08T17:53:53.688Z,4.10
2019-02-08T17:56:20.179Z,3.60
2019-02-08T17:58:46.819Z,3.47
2019-02-08T18:01:13.401Z,3.30
2019-02-08T18:03:39.958Z,2.97
2019-02-08T18:06:06.675Z,2.73
2019-02-08T18:08:33.271Z,2.93
2019-02-08T18:10:59.703Z,3.20
2019-02-08T18:13:26.249Z,2.90
2019-02-08T18:15:52.639Z,3.50
2019-02-08T18:18:19.102Z,2.83
2019-02-08T18:20:48.963Z,4.03
2019-02-08T18:23:15.439Z,3.87
2019-02-08T18:25:41.947Z,4.27
2019-02-08T18:28:10.956Z,3.87
2019-02-08T18:30:36.875Z,4.30
2019-02-08T18:33:03.656Z,3.90
2019-02-08T18:35:30.027Z,3.90
2019-02-08T18:37:56.622Z,3.90
2019-02-08T18:40:23.932Z,4.30
2019-02-08T18:42:50.884Z,4.10
2019-02-08T18:45:23.315Z,4.40
2019-02-08T18:47:49.833Z,5.67
2019-02-08T18:50:38.871Z,4.40
2019-02-08T18:53:05.962Z,4.70
2019-02-08T18:55:32.432Z,3.73
2019-02-08T18:57:59.016Z,4.90
2019-02-08T19:00:39.688Z,4.43
2019-02-08T19:03:01.965Z,4.47
2019-02-08T19:05:28.724Z,4.50
2019-02-08T19:07:55.203Z,4.20
2019-02-08T19:10:22.490Z,4.40
2019-02-08T19:12:49.378Z,4.47
2019-02-08T19:15:18.678Z,4.37
2019-02-08T19:17:45.179Z,5.17
2019-02-08T19:20:14.184Z,4.70
2019-02-08T19:22:40.683Z,4.07
2019-02-08T19:25:10.520Z,4.47
2019-02-08T19:27:37.040Z,4.17
2019-02-08T19:30:12.808Z,3.97
2019-02-08T19:32:39.386Z,3.20
2019-02-08T19:35:09.103Z,3.67
2019-02-08T19:37:35.583Z,3.70
2019-02-08T19:40:11.702Z,3.33
2019-02-08T19:42:38.250Z,3.80
2019-02-08T19:45:08.603Z,3.53
2019-02-08T19:47:35.188Z,4.03
2019-02-08T19:50:03.549Z,3.70
2019-02-08T19:52:30.035Z,4.13
2019-02-08T19:54:56.461Z,3.90
2019-02-08T19:57:22.874Z,3.70
2019-02-08T19:59:49.443Z,4.20
2019-02-08T20:02:15.984Z,4.50
2019-02-08T20:04:42.439Z,5.50
2019-02-08T20:07:08.924Z,5.20
2019-02-08T20:09:35.283Z,4.60
2019-02-08T20:12:01.824Z,4.73
2019-02-08T20:14:28.401Z,5.67
2019-02-08T20:16:54.796Z,4.40
2019-02-08T20:19:21.425Z,4.27
2019-02-08T20:21:47.895Z,3.73
2019-02-08T20:24:14.553Z,4.07
2019-02-08T20:26:40.951Z,4.20
2019-02-08T20:29:07.629Z,3.80
2019-02-08T20:31:34.135Z,3.63
2019-02-08T20:34:00.688Z,3.77
2019-02-08T20:36:27.186Z,3.30
2019-02-08T20:38:53.636Z,3.80
2019-02-08T20:41:20.099Z,4.43
2019-02-08T20:43:46.530Z,3.20
2019-02-08T20:46:13.138Z,3.80
2019-02-08T20:48:39.623Z,3.20
2019-02-08T20:51:06.411Z,3.10
2019-02-08T20:53:35.034Z,2.87
2019-02-08T20:56:01.683Z,3.50
2019-02-08T20:58:28.375Z,3.77
2019-02-08T21:00:55.020Z,4.83
2019-02-08T21:03:22.364Z,4.43
2019-02-08T21:05:49.157Z,4.23
2019-02-08T21:08:16.219Z,5.00
2019-02-08T21:10:42.726Z,5.00
2019-02-08T21:13:10.041Z,5.47
2019-02-08T21:15:36.614Z,5.57
2019-02-08T21:18:04.550Z,5.43
2019-02-08T21:20:31.123Z,5.30
2019-02-08T21:22:57.647Z,6.83
2019-02-08T21:25:32.730Z,4.87
2019-02-08T21:27:59.190Z,4.60
2019-02-08T21:30:26.083Z,6.90
2019-02-08T21:32:52.588Z,3.80
2019-02-08T21:35:19.304Z,4.40
2019-02-08T21:37:46.493Z,3.97
2019-02-08T21:40:17.602Z,3.33
2019-02-08T21:42:44.155Z,3.40
2019-02-08T21:45:13.945Z,3.67
2019-02-08T21:47:40.418Z,3.47
2019-02-08T21:50:09.989Z,3.53
2019-02-08T21:52:36.401Z,3.70
2019-02-08T21:55:05.561Z,3.50
2019-02-08T21:57:32.047Z,3.00
2019-02-08T21:59:58.714Z,3.87
2019-02-08T22:02:25.151Z,3.47
2019-02-08T22:04:52.147Z,3.40
2019-02-08T22:07:18.614Z,3.33
2019-02-08T22:09:44.974Z,2.83
2019-02-08T22:12:11.534Z,2.80
2019-02-08T22:14:37.903Z,3.20
2019-02-08T22:17:04.549Z,3.00
2019-02-08T22:19:31.055Z,2.30
2019-02-08T22:21:57.576Z,2.50
2019-02-08T22:24:24.072Z,2.27
2019-02-08T22:26:50.588Z,2.50
2019-02-08T22:29:16.992Z,3.13
2019-02-08T22:31:43.624Z,3.67
2019-02-08T22:34:10.027Z,5.57
2019-02-08T22:36:36.582Z,3.40
2019-02-08T22:39:06.128Z,3.33
2019-02-08T22:41:32.633Z,3.27
2019-02-08T22:43:59.213Z,2.93
2019-02-08T22:46:25.781Z,3.23
2019-02-08T22:48:52.374Z,3.03
2019-02-08T22:51:18.773Z,3.17
2019-02-08T22:53:45.220Z,4.47
2019-02-08T22:56:11.556Z,2.87
2019-02-08T22:58:38.986Z,2.80
2019-02-08T23:01:11.919Z,2.77
2019-02-08T23:03:38.307Z,3.63
2019-02-08T23:06:05.109Z,2.80
2019-02-08T23:08:31.582Z,2.70
2019-02-08T23:10:58.275Z,4.20
2019-02-08T23:13:24.967Z,2.80
2019-02-08T23:15:51.558Z,2.90
2019-02-08T23:18:18.036Z,2.93
2019-02-08T23:20:44.781Z,2.47
2019-02-08T23:23:11.243Z,2.70
2019-02-08T23:25:37.970Z,3.10
2019-02-08T23:28:04.597Z,2.63
2019-02-08T23:30:31.370Z,2.50
2019-02-08T23:32:57.814Z,2.80
2019-02-08T23:35:24.825Z,2.40
2019-02-08T23:37:51.289Z,2.80
2019-02-08T23:40:18.558Z,2.30
2019-02-08T23:42:45.303Z,2.30
2019-02-08T23:45:15.527Z,3.20
2019-02-08T23:47:42.090Z,3.00
2019-02-08T23:50:13.380Z,3.00
2019-02-08T23:52:40.076Z,3.33
2019-02-08T23:55:08.380Z,4.03
2019-02-08T23:57:34.977Z,4.27
